createdAt,value
2023-04-28T00:00:17.475Z,1007.22
2023-04-28T00:01:17.414Z,1007.19
2023-04-28T00:02:17.469Z,1007.21
2023-04-28T00:03:17.494Z,1007.19
2023-04-28T00:04:17.788Z,1007.15
2023-04-28T00:05:17.530Z,1007.16
2023-04-28T00:06:17.357Z,1007.10
2023-04-28T00:07:17.339Z,1007.13
2023-04-28T00:08:17.334Z,1007.14
2023-04-28T00:09:17.354Z,1007.09
2023-04-28T00:10:17.307Z,1007.12
2023-04-28T00:11:17.300Z,1007.15
2023-04-28T00:12:17.289Z,1007.09
2023-04-28T00:13:17.279Z,1007.04
2023-04-28T00:14:17.566Z,1007.01
2023-04-28T00:15:17.281Z,1006.98
2023-04-28T00:16:17.331Z,1006.91
2023-04-28T00:17:17.305Z,1006.89
2023-04-28T00:18:17.281Z,1006.86
2023-04-28T00:19:17.218Z,1006.85
2023-04-28T00:20:17.223Z,1006.87
2023-04-28T00:21:17.193Z,1006.88
2023-04-28T00:22:17.186Z,1006.91
2023-04-28T00:23:17.163Z,1006.87
2023-04-28T00:24:17.359Z,1006.89
2023-04-28T00:25:17.158Z,1006.87
2023-04-28T00:26:17.152Z,1006.89
2023-04-28T00:27:17.129Z,1006.88
2023-04-28T00:28:30.557Z,1006.80
2023-04-28T00:29:17.114Z,1006.78
2023-04-28T00:30:17.101Z,1006.75
2023-04-28T00:31:17.112Z,1006.74
2023-04-28T00:32:17.097Z,1006.72
2023-04-28T00:33:17.059Z,1006.71
2023-04-28T00:34:17.372Z,1006.68
2023-04-28T00:35:17.028Z,1006.67
2023-04-28T00:36:17.025Z,1006.65
2023-04-28T00:37:17.004Z,1006.68
2023-04-28T00:38:17.017Z,1006.65
2023-04-28T00:39:16.991Z,1006.73
2023-04-28T00:40:16.974Z,1006.72
2023-04-28T00:41:16.988Z,1006.69
2023-04-28T00:42:16.943Z,1006.65
2023-04-28T00:43:16.981Z,1006.67
2023-04-28T00:44:17.082Z,1006.65
2023-04-28T00:45:16.920Z,1006.59
2023-04-28T00:46:16.967Z,1006.58
2023-04-28T00:47:16.894Z,1006.51
2023-04-28T00:48:16.869Z,1006.51
2023-04-28T00:49:16.923Z,1006.51
2023-04-28T00:50:16.848Z,1006.47
2023-04-28T00:51:16.855Z,1006.49
2023-04-28T00:52:16.836Z,1006.50
2023-04-28T00:53:16.837Z,1006.46
2023-04-28T00:54:17.062Z,1006.48
2023-04-28T00:55:16.845Z,1006.46
2023-04-28T00:56:16.794Z,1006.39
2023-04-28T00:57:16.771Z,1006.39
2023-04-28T00:58:16.760Z,1006.38
2023-04-28T00:59:16.774Z,1006.44
2023-04-28T01:00:16.738Z,1006.41
2023-04-28T01:01:16.806Z,1006.39
2023-04-28T01:02:16.813Z,1006.44
2023-04-28T01:03:16.950Z,1006.40
2023-04-28T01:04:16.915Z,1006.40
2023-04-28T01:05:16.678Z,1006.34
2023-04-28T01:06:16.681Z,1006.36
2023-04-28T01:07:16.703Z,1006.31
2023-04-28T01:08:16.667Z,1006.29
2023-04-28T01:09:16.656Z,1006.30
2023-04-28T01:10:16.641Z,1006.32
2023-04-28T01:11:16.638Z,1006.31
2023-04-28T01:12:16.610Z,1006.35
2023-04-28T01:13:16.621Z,1006.31
2023-04-28T01:14:16.914Z,1006.33
2023-04-28T01:15:16.569Z,1006.34
2023-04-28T01:16:16.608Z,1006.28
2023-04-28T01:17:16.553Z,1006.26
2023-04-28T01:18:16.545Z,1006.21
2023-04-28T01:19:16.528Z,1006.19
2023-04-28T01:20:16.518Z,1006.18
2023-04-28T01:21:16.520Z,1006.18
2023-04-28T01:22:16.575Z,1006.22
2023-04-28T01:23:16.484Z,1006.12
2023-04-28T01:24:17.741Z,1006.20
2023-04-28T01:25:16.469Z,1006.11
2023-04-28T01:26:16.461Z,1006.12
2023-04-28T01:27:16.440Z,1006.12
2023-04-28T01:28:16.469Z,1006.14
2023-04-28T01:29:16.429Z,1006.15
2023-04-28T01:30:16.405Z,1006.15
2023-04-28T01:31:18.120Z,1006.18
2023-04-28T01:32:16.396Z,1006.12
2023-04-28T01:33:16.373Z,1006.09
2023-04-28T01:34:16.588Z,1006.06
2023-04-28T01:35:16.367Z,1006.01
2023-04-28T01:36:16.360Z,1006.03
2023-04-28T01:37:16.342Z,1006.02
2023-04-28T01:38:16.334Z,1006.01
2023-04-28T01:39:16.296Z,1006.03
2023-04-28T01:40:16.286Z,1006.00
2023-04-28T01:41:16.264Z,1005.96
2023-04-28T01:42:16.280Z,1006.01
2023-04-28T01:43:16.281Z,1005.98
2023-04-28T01:44:16.430Z,1005.95
2023-04-28T01:45:16.221Z,1005.92
2023-04-28T01:46:16.244Z,1005.90
2023-04-28T01:47:16.220Z,1005.90
2023-04-28T01:48:16.201Z,1005.89
2023-04-28T01:49:16.198Z,1005.89
2023-04-28T01:50:16.183Z,1005.90
2023-04-28T01:51:16.192Z,1005.87
2023-04-28T01:52:16.150Z,1005.88
2023-04-28T01:53:16.133Z,1005.86
2023-04-28T01:54:16.481Z,1005.88
2023-04-28T01:55:16.132Z,1005.88
2023-04-28T01:56:16.108Z,1005.89
2023-04-28T01:57:17.568Z,1005.89
2023-04-28T01:58:16.085Z,1005.90
2023-04-28T01:59:16.093Z,1005.90
2023-04-28T02:00:16.079Z,1005.86
2023-04-28T02:01:16.056Z,1005.87
2023-04-28T02:02:16.071Z,1005.80
2023-04-28T02:03:16.144Z,1005.78
2023-04-28T02:04:16.228Z,1005.81
2023-04-28T02:05:15.996Z,1005.76
2023-04-28T02:06:16.012Z,1005.73
2023-04-28T02:07:15.964Z,1005.68
2023-04-28T02:08:15.973Z,1005.72
2023-04-28T02:09:16.006Z,1005.71
2023-04-28T02:10:15.983Z,1005.70
2023-04-28T02:11:15.957Z,1005.71
2023-04-28T02:12:15.970Z,1005.68
2023-04-28T02:13:16.007Z,1005.73
2023-04-28T02:14:16.274Z,1005.73
2023-04-28T02:15:15.882Z,1005.74
2023-04-28T02:16:16.017Z,1005.73
2023-04-28T02:17:15.894Z,1005.70
2023-04-28T02:18:15.851Z,1005.71
2023-04-28T02:19:15.845Z,1005.65
2023-04-28T02:20:15.829Z,1005.66
2023-04-28T02:21:15.810Z,1005.63
2023-04-28T02:22:15.824Z,1005.60
2023-04-28T02:23:15.785Z,1005.56
2023-04-28T02:24:15.891Z,1005.56
2023-04-28T02:25:15.775Z,1005.56
2023-04-28T02:26:15.767Z,1005.54
2023-04-28T02:27:15.764Z,1005.56
2023-04-28T02:28:15.741Z,1005.54
2023-04-28T02:29:15.718Z,1005.56
2023-04-28T02:30:15.708Z,1005.53
2023-04-28T02:31:15.707Z,1005.51
2023-04-28T02:32:15.729Z,1005.53
2023-04-28T02:33:15.669Z,1005.52
2023-04-28T02:34:15.987Z,1005.53
2023-04-28T02:35:15.680Z,1005.49
2023-04-28T02:36:15.648Z,1005.47
2023-04-28T02:37:15.649Z,1005.48
2023-04-28T02:38:15.619Z,1005.46
2023-04-28T02:39:15.615Z,1005.48
2023-04-28T02:40:15.602Z,1005.50
2023-04-28T02:41:15.589Z,1005.46
2023-04-28T02:42:15.597Z,1005.46
2023-04-28T02:43:15.574Z,1005.45
2023-04-28T02:44:15.908Z,1005.42
2023-04-28T02:45:15.530Z,1005.45
2023-04-28T02:46:15.602Z,1005.45
2023-04-28T02:47:15.542Z,1005.51
2023-04-28T02:48:15.510Z,1005.46
2023-04-28T02:49:15.486Z,1005.46
2023-04-28T02:50:15.569Z,1005.48
2023-04-28T02:51:15.478Z,1005.46
2023-04-28T02:52:15.470Z,1005.51
2023-04-28T02:53:15.468Z,1005.49
2023-04-28T02:54:15.743Z,1005.43
2023-04-28T02:55:15.424Z,1005.44
2023-04-28T02:56:15.421Z,1005.44
2023-04-28T02:57:15.411Z,1005.40
2023-04-28T02:58:15.392Z,1005.42
2023-04-28T02:59:15.397Z,1005.41
2023-04-28T03:00:15.375Z,1005.41
2023-04-28T03:01:15.386Z,1005.37
2023-04-28T03:02:15.350Z,1005.39
2023-04-28T03:03:15.568Z,1005.41
2023-04-28T03:04:15.836Z,1005.42
2023-04-28T03:05:15.332Z,1005.37
2023-04-28T03:06:15.303Z,1005.33
2023-04-28T03:07:15.304Z,1005.34
2023-04-28T03:08:15.286Z,1005.34
2023-04-28T03:09:15.292Z,1005.31
2023-04-28T03:10:15.298Z,1005.31
2023-04-28T03:11:15.271Z,1005.34
2023-04-28T03:12:15.237Z,1005.34
2023-04-28T03:13:15.220Z,1005.26
2023-04-28T03:14:15.482Z,1005.28
2023-04-28T03:15:15.204Z,1005.30
2023-04-28T03:16:15.287Z,1005.30
2023-04-28T03:17:15.196Z,1005.27
2023-04-28T03:18:15.168Z,1005.29
2023-04-28T03:19:15.156Z,1005.28
2023-04-28T03:20:15.152Z,1005.29
2023-04-28T03:21:15.128Z,1005.31
2023-04-28T03:22:15.143Z,1005.30
2023-04-28T03:23:15.102Z,1005.26
2023-04-28T03:24:15.323Z,1005.29
2023-04-28T03:25:15.083Z,1005.31
2023-04-28T03:26:15.080Z,1005.31
2023-04-28T03:27:15.081Z,1005.23
2023-04-28T03:28:15.048Z,1005.25
2023-04-28T03:29:15.032Z,1005.21
2023-04-28T03:30:15.050Z,1005.20
2023-04-28T03:31:15.013Z,1005.18
2023-04-28T03:32:15.147Z,1005.13
2023-04-28T03:33:15.004Z,1005.15
2023-04-28T03:34:15.186Z,1005.16
2023-04-28T03:35:14.978Z,1005.15
2023-04-28T03:36:14.971Z,1005.17
2023-04-28T03:37:14.943Z,1005.15
2023-04-28T03:38:14.958Z,1005.12
2023-04-28T03:39:14.925Z,1005.13
2023-04-28T03:40:14.911Z,1005.11
2023-04-28T03:41:14.976Z,1005.10
2023-04-28T03:42:14.899Z,1005.14
2023-04-28T03:43:14.872Z,1005.13
2023-04-28T03:44:15.530Z,1005.11
2023-04-28T03:45:14.862Z,1005.12
2023-04-28T03:46:14.877Z,1005.09
2023-04-28T03:47:14.843Z,1005.08
2023-04-28T03:48:14.897Z,1005.12
2023-04-28T03:49:14.803Z,1005.11
2023-04-28T03:50:14.819Z,1005.16
2023-04-28T03:51:14.785Z,1005.16
2023-04-28T03:52:14.792Z,1005.21
2023-04-28T03:53:14.766Z,1005.15
2023-04-28T03:54:14.966Z,1005.17
2023-04-28T03:55:14.733Z,1005.09
2023-04-28T03:56:14.765Z,1005.08
2023-04-28T03:57:14.715Z,1005.08
2023-04-28T03:58:14.710Z,1005.07
2023-04-28T03:59:14.700Z,1005.05
2023-04-28T04:00:14.686Z,1005.03
2023-04-28T04:01:14.672Z,1005.01
2023-04-28T04:02:14.751Z,1005.00
2023-04-28T04:03:14.843Z,1004.95
2023-04-28T04:04:15.223Z,1004.94
2023-04-28T04:05:14.713Z,1004.90
2023-04-28T04:06:14.619Z,1004.86
2023-04-28T04:07:14.602Z,1004.81
2023-04-28T04:08:14.624Z,1004.84
2023-04-28T04:09:14.609Z,1004.80
2023-04-28T04:10:14.578Z,1004.73
2023-04-28T04:11:14.552Z,1004.74
2023-04-28T04:12:14.575Z,1004.71
2023-04-28T04:13:14.543Z,1004.71
2023-04-28T04:14:14.640Z,1004.71
2023-04-28T04:15:14.556Z,1004.76
2023-04-28T04:16:14.583Z,1004.75
2023-04-28T04:17:14.534Z,1004.79
2023-04-28T04:18:14.532Z,1004.77
2023-04-28T04:19:14.496Z,1004.80
2023-04-28T04:20:14.521Z,1004.75
2023-04-28T04:21:14.474Z,1004.72
2023-04-28T04:22:14.458Z,1004.69
2023-04-28T04:23:14.416Z,1004.63
2023-04-28T04:24:14.600Z,1004.61
2023-04-28T04:25:14.410Z,1004.59
2023-04-28T04:26:14.415Z,1004.55
2023-04-28T04:27:14.383Z,1004.54
2023-04-28T04:28:14.365Z,1004.55
2023-04-28T04:29:14.353Z,1004.53
2023-04-28T04:30:14.383Z,1004.52
2023-04-28T04:31:14.382Z,1004.51
2023-04-28T04:32:14.339Z,1004.49
2023-04-28T04:33:14.308Z,1004.47
2023-04-28T04:34:14.504Z,1004.47
2023-04-28T04:35:14.291Z,1004.46
2023-04-28T04:36:14.314Z,1004.48
2023-04-28T04:37:14.279Z,1004.48
2023-04-28T04:38:14.272Z,1004.42
2023-04-28T04:39:14.237Z,1004.44
2023-04-28T04:40:14.235Z,1004.43
2023-04-28T04:41:14.229Z,1004.43
2023-04-28T04:42:24.099Z,1004.47
2023-04-28T04:43:14.197Z,1004.46
2023-04-28T04:44:14.443Z,1004.49
2023-04-28T04:45:14.180Z,1004.48
2023-04-28T04:46:14.190Z,1004.48
2023-04-28T04:47:14.353Z,1004.48
2023-04-28T04:48:14.237Z,1004.49
2023-04-28T04:49:14.120Z,1004.51
2023-04-28T04:50:14.165Z,1004.54
2023-04-28T04:51:14.111Z,1004.56
2023-04-28T04:52:14.096Z,1004.58
2023-04-28T04:53:16.200Z,1004.58
2023-04-28T04:54:14.240Z,1004.60
2023-04-28T04:55:14.062Z,1004.57
2023-04-28T04:56:14.068Z,1004.60
2023-04-28T04:57:14.038Z,1004.62
2023-04-28T04:58:14.064Z,1004.56
2023-04-28T04:59:14.010Z,1004.57
2023-04-28T05:00:14.008Z,1004.54
2023-04-28T05:01:13.984Z,1004.55
2023-04-28T05:02:14.027Z,1004.55
2023-04-28T05:03:14.087Z,1004.53
2023-04-28T05:04:14.318Z,1004.52
2023-04-28T05:05:21.250Z,1004.50
2023-04-28T05:06:13.947Z,1004.51
2023-04-28T05:07:13.979Z,1004.52
2023-04-28T05:08:13.912Z,1004.56
2023-04-28T05:09:13.923Z,1004.54
2023-04-28T05:10:13.890Z,1004.52
2023-04-28T05:11:13.876Z,1004.51
2023-04-28T05:12:13.867Z,1004.50
2023-04-28T05:13:13.849Z,1004.47
2023-04-28T05:14:14.063Z,1004.43
2023-04-28T05:15:13.842Z,1004.44
2023-04-28T05:16:13.852Z,1004.37
2023-04-28T05:17:13.805Z,1004.27
2023-04-28T05:18:13.888Z,1004.28
2023-04-28T05:19:13.786Z,1004.24
2023-04-28T05:20:13.793Z,1004.23
2023-04-28T05:21:13.766Z,1004.22
2023-04-28T05:22:13.747Z,1004.27
2023-04-28T05:23:13.744Z,1004.31
2023-04-28T05:24:13.836Z,1004.29
2023-04-28T05:25:13.727Z,1004.42
2023-04-28T05:26:13.727Z,1004.40
2023-04-28T05:27:13.694Z,1004.38
2023-04-28T05:28:13.684Z,1004.44
2023-04-28T05:29:13.681Z,1004.40
2023-04-28T05:30:13.686Z,1004.41
2023-04-28T05:31:13.670Z,1004.44
2023-04-28T05:32:13.832Z,1004.40
2023-04-28T05:33:13.636Z,1004.41
2023-04-28T05:34:13.740Z,1004.40
2023-04-28T05:35:13.608Z,1004.35
2023-04-28T05:36:13.624Z,1004.37
2023-04-28T05:37:13.581Z,1004.31
2023-04-28T05:38:13.587Z,1004.32
2023-04-28T05:39:13.569Z,1004.32
2023-04-28T05:40:13.545Z,1004.28
2023-04-28T05:41:13.540Z,1004.25
2023-04-28T05:42:13.549Z,1004.26
2023-04-28T05:43:13.530Z,1004.27
2023-04-28T05:44:13.538Z,1004.26
2023-04-28T05:45:13.496Z,1004.30
2023-04-28T05:46:28.186Z,1004.28
2023-04-28T05:47:13.482Z,1004.30
2023-04-28T05:48:13.858Z,1004.30
2023-04-28T05:49:13.446Z,1004.26
2023-04-28T05:50:13.426Z,1004.26
2023-04-28T05:51:13.427Z,1004.25
2023-04-28T05:52:13.406Z,1004.22
2023-04-28T05:53:13.415Z,1004.20
2023-04-28T05:54:13.415Z,1004.21
2023-04-28T05:55:13.378Z,1004.25
2023-04-28T05:56:13.360Z,1004.25
2023-04-28T05:57:13.354Z,1004.25
2023-04-28T05:58:13.352Z,1004.26
2023-04-28T05:59:13.358Z,1004.26
2023-04-28T06:00:13.398Z,1004.26
2023-04-28T06:01:13.311Z,1004.27
2023-04-28T06:02:13.324Z,1004.26
2023-04-28T06:03:13.614Z,1004.25
2023-04-28T06:04:13.484Z,1004.21
2023-04-28T06:05:13.599Z,1004.23
2023-04-28T06:06:13.376Z,1004.21
2023-04-28T06:07:13.247Z,1004.12
2023-04-28T06:08:13.221Z,1004.04
2023-04-28T06:09:13.243Z,1004.11
2023-04-28T06:10:13.206Z,1004.08
2023-04-28T06:11:13.301Z,1004.03
2023-04-28T06:12:13.179Z,1004.03
2023-04-28T06:13:14.583Z,1004.03
2023-04-28T06:14:13.164Z,1004.02
2023-04-28T06:15:13.158Z,1004.05
2023-04-28T06:16:13.149Z,1004.06
2023-04-28T06:17:13.155Z,1004.07
2023-04-28T06:18:13.112Z,1004.07
2023-04-28T06:19:13.119Z,1004.07
2023-04-28T06:20:13.090Z,1003.99
2023-04-28T06:21:13.088Z,1004.02
2023-04-28T06:22:13.095Z,1004.00
2023-04-28T06:23:13.059Z,1003.99
2023-04-28T06:24:13.049Z,1003.99
2023-04-28T06:25:13.053Z,1003.98
2023-04-28T06:26:13.032Z,1003.99
2023-04-28T06:27:13.012Z,1004.01
2023-04-28T06:28:13.020Z,1004.05
2023-04-28T06:29:12.987Z,1004.04
2023-04-28T06:30:12.980Z,1004.06
2023-04-28T06:31:13.016Z,1004.02
2023-04-28T06:32:12.952Z,1004.02
2023-04-28T06:33:12.979Z,1004.05
2023-04-28T06:34:12.932Z,1004.03
2023-04-28T06:35:12.924Z,1004.04
2023-04-28T06:36:12.904Z,1004.01
2023-04-28T06:37:12.902Z,1003.99
2023-04-28T06:38:12.887Z,1003.97
2023-04-28T06:39:12.911Z,1003.92
2023-04-28T06:40:12.866Z,1003.91
2023-04-28T06:41:12.885Z,1003.91
2023-04-28T06:42:12.830Z,1003.92
2023-04-28T06:43:12.841Z,1003.87
2023-04-28T06:44:12.807Z,1003.91
2023-04-28T06:45:12.837Z,1003.89
2023-04-28T06:46:12.873Z,1003.90
2023-04-28T06:47:12.793Z,1003.90
2023-04-28T06:48:12.832Z,1003.88
2023-04-28T06:49:12.761Z,1003.85
2023-04-28T06:50:12.747Z,1003.90
2023-04-28T06:51:12.764Z,1003.85
2023-04-28T06:52:12.724Z,1003.87
2023-04-28T06:53:12.719Z,1003.89
2023-04-28T06:54:12.705Z,1003.84
2023-04-28T06:55:12.692Z,1003.84
2023-04-28T06:56:12.716Z,1003.79
2023-04-28T06:57:12.667Z,1003.80
2023-04-28T06:58:12.657Z,1003.72
2023-04-28T06:59:12.653Z,1003.70
2023-04-28T07:00:12.654Z,1003.67
2023-04-28T07:01:12.787Z,1003.64
2023-04-28T07:02:12.669Z,1003.62
2023-04-28T07:03:12.775Z,1003.57
2023-04-28T07:04:12.738Z,1003.57
2023-04-28T07:05:14.154Z,1003.59
2023-04-28T07:06:12.574Z,1003.58
2023-04-28T07:07:12.584Z,1003.52
2023-04-28T07:08:12.571Z,1003.54
2023-04-28T07:09:12.537Z,1003.55
2023-04-28T07:10:12.525Z,1003.57
2023-04-28T07:11:12.534Z,1003.57
2023-04-28T07:12:12.498Z,1003.59
2023-04-28T07:13:12.514Z,1003.59
2023-04-28T07:14:12.481Z,1003.61
2023-04-28T07:15:12.935Z,1003.61
2023-04-28T07:16:12.500Z,1003.64
2023-04-28T07:17:12.448Z,1003.60
2023-04-28T07:18:12.506Z,1003.59
2023-04-28T07:19:12.470Z,1003.63
2023-04-28T07:20:12.404Z,1003.62
2023-04-28T07:21:12.406Z,1003.62
2023-04-28T07:22:12.670Z,1003.61
2023-04-28T07:23:12.392Z,1003.64
2023-04-28T07:24:12.388Z,1003.71
2023-04-28T07:25:12.370Z,1003.67
2023-04-28T07:26:14.691Z,1003.67
2023-04-28T07:27:12.336Z,1003.72
2023-04-28T07:28:12.316Z,1003.76
2023-04-28T07:29:12.341Z,1003.69
2023-04-28T07:30:25.958Z,1003.71
2023-04-28T07:31:12.334Z,1003.70
2023-04-28T07:32:12.371Z,1003.77
2023-04-28T07:33:12.306Z,1003.78
2023-04-28T07:34:12.271Z,1003.82
2023-04-28T07:35:12.249Z,1003.84
2023-04-28T07:36:12.235Z,1003.83
2023-04-28T07:37:12.461Z,1003.84
2023-04-28T07:38:12.220Z,1003.86
2023-04-28T07:39:12.227Z,1003.84
2023-04-28T07:40:12.191Z,1003.82
2023-04-28T07:41:12.207Z,1003.85
2023-04-28T07:42:12.159Z,1003.85
2023-04-28T07:43:12.147Z,1003.86
2023-04-28T07:44:12.200Z,1003.86
2023-04-28T07:45:12.129Z,1003.88
2023-04-28T07:46:12.198Z,1003.88
2023-04-28T07:47:12.108Z,1003.88
2023-04-28T07:48:12.116Z,1003.88
2023-04-28T07:49:12.104Z,1003.88
2023-04-28T07:50:12.067Z,1003.91
2023-04-28T07:51:12.066Z,1003.93
2023-04-28T07:52:12.049Z,1003.89
2023-04-28T07:53:12.041Z,1003.91
2023-04-28T07:54:12.035Z,1003.88
2023-04-28T07:55:12.021Z,1003.90
2023-04-28T07:56:11.994Z,1003.90
2023-04-28T07:57:11.997Z,1003.89
2023-04-28T07:58:11.974Z,1003.89
2023-04-28T07:59:12.001Z,1003.88
2023-04-28T08:00:12.176Z,1003.89
2023-04-28T08:01:11.946Z,1003.90
2023-04-28T08:02:11.937Z,1003.83
2023-04-28T08:03:12.221Z,1003.82
2023-04-28T08:04:12.218Z,1003.79
2023-04-28T08:05:12.059Z,1003.76
2023-04-28T08:06:11.884Z,1003.77
2023-04-28T08:07:11.880Z,1003.76
2023-04-28T08:08:11.857Z,1003.73
2023-04-28T08:09:11.873Z,1003.72
2023-04-28T08:10:11.860Z,1003.69
2023-04-28T08:11:11.832Z,1003.64
2023-04-28T08:12:11.841Z,1003.61
2023-04-28T08:13:11.809Z,1003.60
2023-04-28T08:14:11.827Z,1003.50
2023-04-28T08:15:11.805Z,1003.43
2023-04-28T08:16:11.817Z,1003.39
2023-04-28T08:17:11.765Z,1003.32
2023-04-28T08:18:11.765Z,1003.29
2023-04-28T08:19:11.763Z,1003.19
2023-04-28T08:20:11.727Z,1003.24
2023-04-28T08:21:11.720Z,1003.23
2023-04-28T08:22:11.702Z,1003.29
2023-04-28T08:23:11.703Z,1003.25
2023-04-28T08:24:11.709Z,1003.31
2023-04-28T08:25:11.674Z,1003.35
2023-04-28T08:26:11.651Z,1003.31
2023-04-28T08:27:11.667Z,1003.38
2023-04-28T08:28:11.635Z,1003.34
2023-04-28T08:29:11.647Z,1003.32
2023-04-28T08:30:11.645Z,1003.35
2023-04-28T08:31:11.632Z,1003.39
2023-04-28T08:32:11.633Z,1003.42
2023-04-28T08:33:11.646Z,1003.43
2023-04-28T08:34:11.587Z,1003.44
2023-04-28T08:35:11.553Z,1003.51
2023-04-28T08:36:11.536Z,1003.54
2023-04-28T08:37:11.548Z,1003.57
2023-04-28T08:38:11.522Z,1003.60
2023-04-28T08:39:13.024Z,1003.59
2023-04-28T08:40:11.499Z,1003.64
2023-04-28T08:41:11.490Z,1003.61
2023-04-28T08:42:11.488Z,1003.59
2023-04-28T08:43:11.472Z,1003.60
2023-04-28T08:44:11.491Z,1003.60
2023-04-28T08:45:11.436Z,1003.56
2023-04-28T08:46:11.486Z,1003.60
2023-04-28T08:47:11.413Z,1003.54
2023-04-28T08:48:11.456Z,1003.55
2023-04-28T08:49:11.515Z,1003.54
2023-04-28T08:50:11.384Z,1003.47
2023-04-28T08:51:11.404Z,1003.50
2023-04-28T08:52:11.360Z,1003.52
2023-04-28T08:53:11.367Z,1003.50
2023-04-28T08:54:25.459Z,1003.51
2023-04-28T08:55:11.351Z,1003.48
2023-04-28T08:56:11.322Z,1003.44
2023-04-28T08:57:11.343Z,1003.48
2023-04-28T08:58:11.283Z,1003.50
2023-04-28T08:59:11.311Z,1003.49
2023-04-28T09:00:11.296Z,1003.54
2023-04-28T09:01:11.257Z,1003.55
2023-04-28T09:02:11.604Z,1003.55
2023-04-28T09:03:11.368Z,1003.57
2023-04-28T09:04:14.030Z,1003.61
2023-04-28T09:05:11.493Z,1003.61
2023-04-28T09:06:11.196Z,1003.57
2023-04-28T09:07:11.192Z,1003.62
2023-04-28T09:08:11.178Z,1003.59
2023-04-28T09:09:11.216Z,1003.60
2023-04-28T09:10:11.146Z,1003.60
2023-04-28T09:11:11.144Z,1003.58
2023-04-28T09:12:11.133Z,1003.50
2023-04-28T09:13:11.131Z,1003.48
2023-04-28T09:14:11.124Z,1003.53
2023-04-28T09:15:11.100Z,1003.49
2023-04-28T09:16:11.111Z,1003.48
2023-04-28T09:17:11.095Z,1003.45
2023-04-28T09:18:11.109Z,1003.46
2023-04-28T09:19:11.079Z,1003.43
2023-04-28T09:20:11.048Z,1003.39
2023-04-28T09:21:11.035Z,1003.37
2023-04-28T09:22:25.490Z,1003.39
2023-04-28T09:23:11.011Z,1003.40
2023-04-28T09:24:11.013Z,1003.41
2023-04-28T09:25:10.983Z,1003.42
2023-04-28T09:26:10.970Z,1003.41
2023-04-28T09:27:10.963Z,1003.37
2023-04-28T09:28:10.954Z,1003.43
2023-04-28T09:29:10.963Z,1003.40
2023-04-28T09:30:10.922Z,1003.38
2023-04-28T09:31:10.925Z,1003.37
2023-04-28T09:32:10.912Z,1003.37
2023-04-28T09:33:11.689Z,1003.36
2023-04-28T09:34:12.381Z,1003.36
2023-04-28T09:35:10.878Z,1003.34
2023-04-28T09:36:10.863Z,1003.32
2023-04-28T09:37:10.884Z,1003.31
2023-04-28T09:38:10.874Z,1003.32
2023-04-28T09:39:10.849Z,1003.28
2023-04-28T09:40:10.813Z,1003.36
2023-04-28T09:41:10.836Z,1003.33
2023-04-28T09:42:10.822Z,1003.34
2023-04-28T09:43:21.323Z,1003.32
2023-04-28T09:44:10.799Z,1003.32
2023-04-28T09:45:10.762Z,1003.35
2023-04-28T09:46:10.797Z,1003.33
2023-04-28T09:47:10.751Z,1003.32
2023-04-28T09:48:10.840Z,1003.23
2023-04-28T09:49:10.725Z,1003.24
2023-04-28T09:50:10.702Z,1003.17
2023-04-28T09:51:12.450Z,1003.18
2023-04-28T09:52:10.687Z,1003.20
2023-04-28T09:53:10.668Z,1003.23
2023-04-28T09:54:10.688Z,1003.18
2023-04-28T09:55:10.644Z,1003.17
2023-04-28T09:56:10.656Z,1003.19
2023-04-28T09:57:10.629Z,1003.17
2023-04-28T09:58:10.611Z,1003.19
2023-04-28T09:59:10.626Z,1003.13
2023-04-28T10:00:10.587Z,1003.13
2023-04-28T10:01:10.590Z,1003.08
2023-04-28T10:02:32.042Z,1003.08
2023-04-28T10:03:10.667Z,1003.07
2023-04-28T10:04:10.681Z,1003.08
2023-04-28T10:05:11.450Z,1003.07
2023-04-28T10:06:10.526Z,1003.10
2023-04-28T10:07:10.504Z,1003.14
2023-04-28T10:08:10.498Z,1003.08
2023-04-28T10:09:10.507Z,1003.11
2023-04-28T10:10:10.524Z,1003.14
2023-04-28T10:11:10.462Z,1003.10
2023-04-28T10:12:10.454Z,1003.12
2023-04-28T10:13:10.436Z,1003.09
2023-04-28T10:14:10.477Z,1003.09
2023-04-28T10:15:10.419Z,1003.11
2023-04-28T10:16:10.441Z,1003.12
2023-04-28T10:17:10.389Z,1003.16
2023-04-28T10:18:10.426Z,1003.12
2023-04-28T10:19:10.403Z,1003.10
2023-04-28T10:20:10.364Z,1003.12
2023-04-28T10:21:10.356Z,1003.10
2023-04-28T10:22:10.349Z,1003.11
2023-04-28T10:23:10.366Z,1003.06
2023-04-28T10:24:10.357Z,1003.04
2023-04-28T10:25:10.304Z,1003.04
2023-04-28T10:26:10.299Z,1003.04
2023-04-28T10:27:10.305Z,1003.03
2023-04-28T10:28:10.281Z,1003.04
2023-04-28T10:29:10.279Z,1003.00
2023-04-28T10:30:22.879Z,1003.03
2023-04-28T10:31:10.270Z,1003.01
2023-04-28T10:32:10.230Z,1002.96
2023-04-28T10:33:10.255Z,1002.92
2023-04-28T10:34:10.226Z,1002.95
2023-04-28T10:35:10.186Z,1002.92
2023-04-28T10:36:10.183Z,1002.93
2023-04-28T10:37:10.175Z,1002.90
2023-04-28T10:38:10.161Z,1002.88
2023-04-28T10:39:10.187Z,1002.85
2023-04-28T10:40:10.148Z,1002.88
2023-04-28T10:41:10.114Z,1002.85
2023-04-28T10:42:10.130Z,1002.84
2023-04-28T10:43:10.111Z,1002.77
2023-04-28T10:44:10.115Z,1002.79
2023-04-28T10:45:10.077Z,1002.78
2023-04-28T10:46:10.125Z,1002.71
2023-04-28T10:47:10.073Z,1002.67
2023-04-28T10:48:10.049Z,1002.71
2023-04-28T10:49:10.052Z,1002.74
2023-04-28T10:50:10.051Z,1002.75
2023-04-28T10:51:10.052Z,1002.77
2023-04-28T10:52:10.001Z,1002.78
2023-04-28T10:53:09.998Z,1002.78
2023-04-28T10:54:10.002Z,1002.78
2023-04-28T10:55:21.423Z,1002.79
2023-04-28T10:56:09.958Z,1002.78
2023-04-28T10:57:09.935Z,1002.79
2023-04-28T10:58:09.944Z,1002.78
2023-04-28T10:59:09.939Z,1002.76
2023-04-28T11:00:09.906Z,1002.72
2023-04-28T11:01:09.910Z,1002.69
2023-04-28T11:02:09.940Z,1002.65
2023-04-28T11:03:10.232Z,1002.63
2023-04-28T11:04:10.007Z,1002.68
2023-04-28T11:05:10.090Z,1002.60
2023-04-28T11:06:09.842Z,1002.61
2023-04-28T11:07:09.829Z,1002.57
2023-04-28T11:08:09.811Z,1002.57
2023-04-28T11:09:09.823Z,1002.55
2023-04-28T11:10:09.792Z,1002.51
2023-04-28T11:11:09.773Z,1002.45
2023-04-28T11:12:09.772Z,1002.48
2023-04-28T11:13:09.760Z,1002.45
2023-04-28T11:14:09.765Z,1002.48
2023-04-28T11:15:09.725Z,1002.41
2023-04-28T11:16:09.829Z,1002.41
2023-04-28T11:17:09.724Z,1002.39
2023-04-28T11:18:09.745Z,1002.47
2023-04-28T11:19:09.708Z,1002.40
2023-04-28T11:20:09.690Z,1002.48
2023-04-28T11:21:09.668Z,1002.40
2023-04-28T11:22:09.651Z,1002.34
2023-04-28T11:23:09.636Z,1002.41
2023-04-28T11:24:09.666Z,1002.36
2023-04-28T11:25:09.607Z,1002.32
2023-04-28T11:26:09.610Z,1002.29
2023-04-28T11:27:09.596Z,1002.26
2023-04-28T11:28:09.585Z,1002.30
2023-04-28T11:29:09.606Z,1002.26
2023-04-28T11:30:09.574Z,1002.26
2023-04-28T11:31:09.552Z,1002.31
2023-04-28T11:32:09.653Z,1002.24
2023-04-28T11:33:09.619Z,1002.20
2023-04-28T11:34:09.542Z,1002.18
2023-04-28T11:35:09.501Z,1002.24
2023-04-28T11:36:09.487Z,1002.24
2023-04-28T11:37:09.517Z,1002.20
2023-04-28T11:38:09.459Z,1002.17
2023-04-28T11:39:09.488Z,1002.20
2023-04-28T11:40:09.477Z,1002.23
2023-04-28T11:41:09.429Z,1002.14
2023-04-28T11:42:09.436Z,1002.21
2023-04-28T11:43:09.408Z,1002.22
2023-04-28T11:44:09.428Z,1002.15
2023-04-28T11:45:09.382Z,1002.17
2023-04-28T11:46:09.436Z,1002.21
2023-04-28T11:47:09.362Z,1002.14
2023-04-28T11:48:09.381Z,1002.16
2023-04-28T11:49:09.359Z,1002.16
2023-04-28T11:50:09.389Z,1002.18
2023-04-28T11:51:09.315Z,1002.20
2023-04-28T11:52:09.329Z,1002.21
2023-04-28T11:53:09.323Z,1002.25
2023-04-28T11:54:09.309Z,1002.23
2023-04-28T11:55:09.269Z,1002.21
2023-04-28T11:56:09.309Z,1002.24
2023-04-28T11:57:09.297Z,1002.25
2023-04-28T11:58:09.251Z,1002.26
2023-04-28T11:59:09.261Z,1002.21
2023-04-28T12:00:09.305Z,1002.28
2023-04-28T12:01:09.207Z,1002.29
2023-04-28T12:02:09.228Z,1002.30
2023-04-28T12:03:09.453Z,1002.25
2023-04-28T12:04:09.278Z,1002.29
2023-04-28T12:05:09.242Z,1002.28